sensor_id;sensor_type;location;lat;lon;timestamp;P1;durP1;ratioP1;P2;durP2;ratioP2
67554;SDS011;54385;53.516;49.456;2023-09-07T00:00:48;3.10;;;2.47;;
67554;SDS011;54385;53.516;49.456;2023-09-07T00:03:15;2.67;;;2.28;;
67554;SDS011;54385;53.516;49.456;2023-09-07T00:05:42;3.00;;;2.28;;
67554;SDS011;54385;53.516;49.456;2023-09-07T00:08:08;2.90;;;2.60;;
67554;SDS011;54385;53.516;49.456;2023-09-07T00:10:34;2.95;;;2.42;;
67554;SDS011;54385;53.516;49.456;2023-09-07T00:13:01;3.00;;;2.42;;
67554;SDS011;54385;53.516;49.456;2023-09-07T00:15:29;2.90;;;2.60;;
67554;SDS011;54385;53.516;49.456;2023-09-07T00:20:27;3.45;;;2.53;;
67554;SDS011;54385;53.516;49.456;2023-09-07T00:22:55;3.00;;;2.42;;
67554;SDS011;54385;53.516;49.456;2023-09-07T00:25:21;2.30;;;2.10;;
67554;SDS011;54385;53.516;49.456;2023-09-07T00:27:48;3.03;;;2.65;;
67554;SDS011;54385;53.516;49.456;2023-09-07T00:30:14;2.67;;;2.28;;
67554;SDS011;54385;53.516;49.456;2023-09-07T00:32:40;2.80;;;2.50;;
67554;SDS011;54385;53.516;49.456;2023-09-07T00:35:08;2.28;;;2.00;;
67554;SDS011;54385;53.516;49.456;2023-09-07T00:37:34;2.83;;;2.20;;
67554;SDS011;54385;53.516;49.456;2023-09-07T00:40:01;3.00;;;2.20;;
67554;SDS011;54385;53.516;49.456;2023-09-07T00:42:29;3.05;;;2.20;;
67554;SDS011;54385;53.516;49.456;2023-09-07T00:44:55;2.50;;;2.30;;
67554;SDS011;54385;53.516;49.456;2023-09-07T00:47:22;3.17;;;2.08;;
67554;SDS011;54385;53.516;49.456;2023-09-07T00:49:49;2.92;;;2.58;;
67554;SDS011;54385;53.516;49.456;2023-09-07T00:52:16;2.83;;;2.25;;
67554;SDS011;54385;53.516;49.456;2023-09-07T00:54:44;2.60;;;2.20;;
67554;SDS011;54385;53.516;49.456;2023-09-07T00:57:10;3.33;;;2.65;;
67554;SDS011;54385;53.516;49.456;2023-09-07T00:59:37;3.08;;;2.53;;
67554;SDS011;54385;53.516;49.456;2023-09-07T01:02:03;2.55;;;2.20;;
67554;SDS011;54385;53.516;49.456;2023-09-07T01:04:31;2.78;;;2.40;;
67554;SDS011;54385;53.516;49.456;2023-09-07T01:07:09;2.33;;;2.13;;
67554;SDS011;54385;53.516;49.456;2023-09-07T01:09:43;2.58;;;2.10;;
67554;SDS011;54385;53.516;49.456;2023-09-07T01:12:16;2.90;;;2.20;;
67554;SDS011;54385;53.516;49.456;2023-09-07T01:14:43;2.67;;;2.20;;
67554;SDS011;54385;53.516;49.456;2023-09-07T01:17:09;3.90;;;2.60;;
67554;SDS011;54385;53.516;49.456;2023-09-07T01:19:37;3.25;;;2.42;;
67554;SDS011;54385;53.516;49.456;2023-09-07T01:22:06;2.33;;;2.13;;
67554;SDS011;54385;53.516;49.456;2023-09-07T01:24:34;2.35;;;2.15;;
67554;SDS011;54385;53.516;49.456;2023-09-07T01:27:02;2.35;;;2.05;;
67554;SDS011;54385;53.516;49.456;2023-09-07T01:29:30;3.97;;;2.67;;
67554;SDS011;54385;53.516;49.456;2023-09-07T01:31:57;2.67;;;2.10;;
67554;SDS011;54385;53.516;49.456;2023-09-07T01:34:24;3.25;;;2.10;;
67554;SDS011;54385;53.516;49.456;2023-09-07T01:36:50;2.63;;;2.20;;
67554;SDS011;54385;53.516;49.456;2023-09-07T01:39:17;2.67;;;2.35;;
67554;SDS011;54385;53.516;49.456;2023-09-07T01:41:43;2.70;;;2.42;;
67554;SDS011;54385;53.516;49.456;2023-09-07T01:44:10;3.33;;;2.22;;
67554;SDS011;54385;53.516;49.456;2023-09-07T01:46:36;2.72;;;2.15;;
67554;SDS011;54385;53.516;49.456;2023-09-07T01:49:03;3.15;;;2.40;;
67554;SDS011;54385;53.516;49.456;2023-09-07T01:51:29;2.65;;;2.30;;
67554;SDS011;54385;53.516;49.456;2023-09-07T01:53:56;2.50;;;2.30;;
67554;SDS011;54385;53.516;49.456;2023-09-07T01:56:22;2.70;;;2.20;;
67554;SDS011;54385;53.516;49.456;2023-09-07T01:58:49;2.95;;;1.83;;
67554;SDS011;54385;53.516;49.456;2023-09-07T02:01:26;2.17;;;1.98;;
67554;SDS011;54385;53.516;49.456;2023-09-07T02:03:56;2.10;;;1.90;;
67554;SDS011;54385;53.516;49.456;2023-09-07T02:06:23;2.80;;;2.15;;
67554;SDS011;54385;53.516;49.456;2023-09-07T02:08:49;3.15;;;2.20;;
67554;SDS011;54385;53.516;49.456;2023-09-07T02:11:16;2.08;;;1.85;;
67554;SDS011;54385;53.516;49.456;2023-09-07T02:13:42;2.53;;;2.33;;
67554;SDS011;54385;53.516;49.456;2023-09-07T02:16:09;4.05;;;2.20;;
67554;SDS011;54385;53.516;49.456;2023-09-07T02:18:36;2.28;;;2.08;;
67554;SDS011;54385;53.516;49.456;2023-09-07T02:21:13;2.03;;;1.80;;
67554;SDS011;54385;53.516;49.456;2023-09-07T02:23:39;2.45;;;1.83;;
67554;SDS011;54385;53.516;49.456;2023-09-07T02:26:09;2.67;;;2.22;;
67554;SDS011;54385;53.516;49.456;2023-09-07T02:28:36;3.50;;;2.15;;
67554;SDS011;54385;53.516;49.456;2023-09-07T02:31:03;2.72;;;2.03;;
67554;SDS011;54385;53.516;49.456;2023-09-07T02:33:34;2.67;;;2.22;;
67554;SDS011;54385;53.516;49.456;2023-09-07T02:36:01;2.33;;;1.98;;
67554;SDS011;54385;53.516;49.456;2023-09-07T02:38:28;2.67;;;1.90;;
67554;SDS011;54385;53.516;49.456;2023-09-07T02:40:56;3.17;;;2.22;;
67554;SDS011;54385;53.516;49.456;2023-09-07T02:43:23;2.97;;;2.00;;
67554;SDS011;54385;53.516;49.456;2023-09-07T02:45:50;3.40;;;2.17;;
67554;SDS011;54385;53.516;49.456;2023-09-07T02:48:17;3.00;;;2.20;;
67554;SDS011;54385;53.516;49.456;2023-09-07T02:50:44;4.72;;;2.53;;
67554;SDS011;54385;53.516;49.456;2023-09-07T02:53:14;3.63;;;2.30;;
67554;SDS011;54385;53.516;49.456;2023-09-07T02:55:41;3.40;;;2.50;;
67554;SDS011;54385;53.516;49.456;2023-09-07T02:58:10;2.78;;;2.20;;
67554;SDS011;54385;53.516;49.456;2023-09-07T03:00:41;4.63;;;2.50;;
67554;SDS011;54385;53.516;49.456;2023-09-07T03:03:13;4.22;;;2.25;;
67554;SDS011;54385;53.516;49.456;2023-09-07T03:05:40;3.53;;;2.03;;
67554;SDS011;54385;53.516;49.456;2023-09-07T03:08:08;2.78;;;2.05;;
67554;SDS011;54385;53.516;49.456;2023-09-07T03:10:35;3.30;;;2.25;;
67554;SDS011;54385;53.516;49.456;2023-09-07T03:13:06;3.83;;;2.47;;
67554;SDS011;54385;53.516;49.456;2023-09-07T03:15:33;2.67;;;2.22;;
67554;SDS011;54385;53.516;49.456;2023-09-07T03:18:00;4.55;;;2.63;;
67554;SDS011;54385;53.516;49.456;2023-09-07T03:20:27;3.08;;;2.38;;
67554;SDS011;54385;53.516;49.456;2023-09-07T03:22:54;3.13;;;2.40;;
67554;SDS011;54385;53.516;49.456;2023-09-07T03:25:22;4.30;;;2.30;;
67554;SDS011;54385;53.516;49.456;2023-09-07T03:27:49;3.05;;;2.10;;
67554;SDS011;54385;53.516;49.456;2023-09-07T03:30:19;2.83;;;1.98;;
67554;SDS011;54385;53.516;49.456;2023-09-07T03:32:46;4.63;;;2.05;;
67554;SDS011;54385;53.516;49.456;2023-09-07T03:35:13;3.83;;;2.05;;
67554;SDS011;54385;53.516;49.456;2023-09-07T03:37:42;4.72;;;2.20;;
67554;SDS011;54385;53.516;49.456;2023-09-07T03:40:09;3.75;;;1.77;;
67554;SDS011;54385;53.516;49.456;2023-09-07T03:42:36;2.00;;;1.50;;
67554;SDS011;54385;53.516;49.456;2023-09-07T03:45:04;3.17;;;1.75;;
67554;SDS011;54385;53.516;49.456;2023-09-07T03:47:34;4.47;;;1.67;;
67554;SDS011;54385;53.516;49.456;2023-09-07T03:50:01;3.30;;;1.60;;
67554;SDS011;54385;53.516;49.456;2023-09-07T03:52:28;3.28;;;1.65;;
67554;SDS011;54385;53.516;49.456;2023-09-07T03:54:55;5.60;;;1.83;;
67554;SDS011;54385;53.516;49.456;2023-09-07T03:57:23;2.78;;;1.85;;
67554;SDS011;54385;53.516;49.456;2023-09-07T03:59:51;4.57;;;1.73;;
67554;SDS011;54385;53.516;49.456;2023-09-07T04:02:18;4.35;;;1.63;;
67554;SDS011;54385;53.516;49.456;2023-09-07T04:04:49;5.65;;;2.00;;
67554;SDS011;54385;53.516;49.456;2023-09-07T04:07:16;4.25;;;1.83;;
67554;SDS011;54385;53.516;49.456;2023-09-07T04:09:46;3.13;;;1.60;;
67554;SDS011;54385;53.516;49.456;2023-09-07T04:12:13;2.22;;;1.35;;
67554;SDS011;54385;53.516;49.456;2023-09-07T04:14:40;5.40;;;1.52;;
67554;SDS011;54385;53.516;49.456;2023-09-07T04:17:08;2.33;;;1.20;;
67554;SDS011;54385;53.516;49.456;2023-09-07T04:19:34;2.17;;;1.40;;
67554;SDS011;54385;53.516;49.456;2023-09-07T04:22:01;2.35;;;1.10;;
67554;SDS011;54385;53.516;49.456;2023-09-07T04:24:28;3.00;;;1.30;;
67554;SDS011;54385;53.516;49.456;2023-09-07T04:26:58;2.47;;;1.27;;
67554;SDS011;54385;53.516;49.456;2023-09-07T04:29:26;1.92;;;1.02;;
67554;SDS011;54385;53.516;49.456;2023-09-07T04:31:53;3.65;;;1.15;;
67554;SDS011;54385;53.516;49.456;2023-09-07T04:34:21;3.13;;;1.38;;
67554;SDS011;54385;53.516;49.456;2023-09-07T04:36:48;2.75;;;1.10;;
67554;SDS011;54385;53.516;49.456;2023-09-07T04:39:15;1.35;;;0.93;;
67554;SDS011;54385;53.516;49.456;2023-09-07T04:41:41;1.98;;;1.10;;
67554;SDS011;54385;53.516;49.456;2023-09-07T04:44:08;2.30;;;1.10;;
67554;SDS011;54385;53.516;49.456;2023-09-07T04:46:34;3.92;;;1.33;;
67554;SDS011;54385;53.516;49.456;2023-09-07T04:49:01;3.22;;;1.00;;
67554;SDS011;54385;53.516;49.456;2023-09-07T04:51:33;2.65;;;1.02;;
67554;SDS011;54385;53.516;49.456;2023-09-07T04:53:59;2.50;;;1.20;;
67554;SDS011;54385;53.516;49.456;2023-09-07T04:56:26;1.35;;;1.00;;
67554;SDS011;54385;53.516;49.456;2023-09-07T04:58:54;3.28;;;1.30;;
67554;SDS011;54385;53.516;49.456;2023-09-07T05:01:21;4.20;;;1.10;;
67554;SDS011;54385;53.516;49.456;2023-09-07T05:03:47;2.47;;;1.10;;
67554;SDS011;54385;53.516;49.456;2023-09-07T05:06:15;1.50;;;1.00;;
67554;SDS011;54385;53.516;49.456;2023-09-07T05:08:42;1.35;;;0.98;;
67554;SDS011;54385;53.516;49.456;2023-09-07T05:11:08;2.35;;;1.20;;
67554;SDS011;54385;53.516;49.456;2023-09-07T05:13:36;1.95;;;1.02;;
67554;SDS011;54385;53.516;49.456;2023-09-07T05:16:02;2.03;;;1.13;;
67554;SDS011;54385;53.516;49.456;2023-09-07T05:18:30;2.22;;;1.33;;
67554;SDS011;54385;53.516;49.456;2023-09-07T05:20:57;2.92;;;1.20;;
67554;SDS011;54385;53.516;49.456;2023-09-07T05:23:24;1.88;;;1.05;;
67554;SDS011;54385;53.516;49.456;2023-09-07T05:25:52;2.20;;;0.98;;
67554;SDS011;54385;53.516;49.456;2023-09-07T05:28:23;2.67;;;1.17;;
67554;SDS011;54385;53.516;49.456;2023-09-07T05:30:50;2.38;;;1.08;;
67554;SDS011;54385;53.516;49.456;2023-09-07T05:33:20;2.75;;;1.13;;
67554;SDS011;54385;53.516;49.456;2023-09-07T05:35:47;3.65;;;1.20;;
67554;SDS011;54385;53.516;49.456;2023-09-07T05:38:14;3.05;;;0.93;;
67554;SDS011;54385;53.516;49.456;2023-09-07T05:40:42;4.00;;;1.30;;
67554;SDS011;54385;53.516;49.456;2023-09-07T05:43:10;2.33;;;1.30;;
67554;SDS011;54385;53.516;49.456;2023-09-07T05:45:41;1.20;;;0.90;;
67554;SDS011;54385;53.516;49.456;2023-09-07T05:48:08;2.75;;;0.98;;
67554;SDS011;54385;53.516;49.456;2023-09-07T05:50:36;1.88;;;1.10;;
67554;SDS011;54385;53.516;49.456;2023-09-07T05:53:04;2.38;;;1.05;;
67554;SDS011;54385;53.516;49.456;2023-09-07T05:55:31;2.80;;;1.20;;
67554;SDS011;54385;53.516;49.456;2023-09-07T05:57:58;1.92;;;1.00;;
67554;SDS011;54385;53.516;49.456;2023-09-07T06:00:28;1.95;;;1.23;;
67554;SDS011;54385;53.516;49.456;2023-09-07T06:02:59;2.65;;;1.02;;
67554;SDS011;54385;53.516;49.456;2023-09-07T06:05:26;1.35;;;1.00;;
67554;SDS011;54385;53.516;49.456;2023-09-07T06:07:53;2.97;;;1.08;;
67554;SDS011;54385;53.516;49.456;2023-09-07T06:10:24;1.95;;;1.20;;
67554;SDS011;54385;53.516;49.456;2023-09-07T06:13:04;1.40;;;1.10;;
67554;SDS011;54385;53.516;49.456;2023-09-07T06:15:40;1.60;;;1.10;;
67554;SDS011;54385;53.516;49.456;2023-09-07T06:18:07;1.50;;;0.98;;
67554;SDS011;54385;53.516;49.456;2023-09-07T06:20:36;1.40;;;1.00;;
67554;SDS011;54385;53.516;49.456;2023-09-07T06:23:05;1.70;;;1.20;;
67554;SDS011;54385;53.516;49.456;2023-09-07T06:25:35;2.08;;;1.10;;
67554;SDS011;54385;53.516;49.456;2023-09-07T06:28:01;2.83;;;1.00;;
67554;SDS011;54385;53.516;49.456;2023-09-07T06:30:28;1.70;;;1.38;;
67554;SDS011;54385;53.516;49.456;2023-09-07T06:32:54;2.08;;;1.15;;
67554;SDS011;54385;53.516;49.456;2023-09-07T06:35:22;1.85;;;1.20;;
67554;SDS011;54385;53.516;49.456;2023-09-07T06:37:49;1.50;;;1.10;;
67554;SDS011;54385;53.516;49.456;2023-09-07T06:40:16;2.20;;;1.00;;
67554;SDS011;54385;53.516;49.456;2023-09-07T06:42:44;2.25;;;1.30;;
67554;SDS011;54385;53.516;49.456;2023-09-07T06:45:10;2.03;;;1.00;;
67554;SDS011;54385;53.516;49.456;2023-09-07T06:47:39;2.08;;;1.20;;
67554;SDS011;54385;53.516;49.456;2023-09-07T06:50:12;1.65;;;1.17;;
67554;SDS011;54385;53.516;49.456;2023-09-07T06:52:39;1.95;;;1.25;;
67554;SDS011;54385;53.516;49.456;2023-09-07T06:55:05;1.58;;;1.10;;
67554;SDS011;54385;53.516;49.456;2023-09-07T06:57:32;1.95;;;1.13;;
67554;SDS011;54385;53.516;49.456;2023-09-07T07:00:02;1.90;;;1.30;;
67554;SDS011;54385;53.516;49.456;2023-09-07T07:02:38;2.22;;;1.30;;
67554;SDS011;54385;53.516;49.456;2023-09-07T07:05:12;1.60;;;1.00;;
67554;SDS011;54385;53.516;49.456;2023-09-07T07:07:39;2.47;;;1.33;;
67554;SDS011;54385;53.516;49.456;2023-09-07T07:10:06;2.15;;;1.40;;
67554;SDS011;54385;53.516;49.456;2023-09-07T07:12:37;1.42;;;1.05;;
67554;SDS011;54385;53.516;49.456;2023-09-07T07:15:04;2.15;;;1.15;;
67554;SDS011;54385;53.516;49.456;2023-09-07T07:17:31;1.92;;;1.10;;
67554;SDS011;54385;53.516;49.456;2023-09-07T07:19:58;2.28;;;1.23;;
67554;SDS011;54385;53.516;49.456;2023-09-07T07:22:24;2.33;;;1.13;;
67554;SDS011;54385;53.516;49.456;2023-09-07T07:24:51;2.03;;;1.02;;
67554;SDS011;54385;53.516;49.456;2023-09-07T07:27:17;2.60;;;1.27;;
67554;SDS011;54385;53.516;49.456;2023-09-07T07:29:43;2.75;;;1.30;;
67554;SDS011;54385;53.516;49.456;2023-09-07T07:32:11;1.85;;;1.20;;
67554;SDS011;54385;53.516;49.456;2023-09-07T07:34:37;3.53;;;1.40;;
67554;SDS011;54385;53.516;49.456;2023-09-07T07:37:04;1.73;;;1.40;;
67554;SDS011;54385;53.516;49.456;2023-09-07T07:39:30;1.98;;;1.30;;
67554;SDS011;54385;53.516;49.456;2023-09-07T07:41:57;3.28;;;1.10;;
67554;SDS011;54385;53.516;49.456;2023-09-07T07:44:52;1.63;;;1.25;;
67554;SDS011;54385;53.516;49.456;2023-09-07T07:47:19;1.92;;;1.30;;
67554;SDS011;54385;53.516;49.456;2023-09-07T07:49:45;2.28;;;1.10;;
67554;SDS011;54385;53.516;49.456;2023-09-07T07:52:12;1.83;;;1.00;;
67554;SDS011;54385;53.516;49.456;2023-09-07T07:54:38;1.48;;;1.00;;
67554;SDS011;54385;53.516;49.456;2023-09-07T07:57:04;3.75;;;1.30;;
67554;SDS011;54385;53.516;49.456;2023-09-07T07:59:33;1.73;;;1.00;;
67554;SDS011;54385;53.516;49.456;2023-09-07T08:02:03;2.25;;;1.30;;
67554;SDS011;54385;53.516;49.456;2023-09-07T08:04:31;2.85;;;1.33;;
67554;SDS011;54385;53.516;49.456;2023-09-07T08:06:58;1.75;;;1.10;;
67554;SDS011;54385;53.516;49.456;2023-09-07T08:09:29;1.35;;;1.08;;
67554;SDS011;54385;53.516;49.456;2023-09-07T08:11:57;2.00;;;1.10;;
67554;SDS011;54385;53.516;49.456;2023-09-07T08:14:24;2.40;;;1.08;;
67554;SDS011;54385;53.516;49.456;2023-09-07T08:16:52;1.95;;;1.10;;
67554;SDS011;54385;53.516;49.456;2023-09-07T08:19:19;1.80;;;1.27;;
67554;SDS011;54385;53.516;49.456;2023-09-07T08:21:46;1.58;;;1.00;;
67554;SDS011;54385;53.516;49.456;2023-09-07T08:24:12;2.33;;;1.25;;
67554;SDS011;54385;53.516;49.456;2023-09-07T08:26:39;1.65;;;1.38;;
67554;SDS011;54385;53.516;49.456;2023-09-07T08:29:06;1.67;;;1.30;;
67554;SDS011;54385;53.516;49.456;2023-09-07T08:31:34;1.95;;;1.05;;
67554;SDS011;54385;53.516;49.456;2023-09-07T08:34:02;2.33;;;1.00;;
67554;SDS011;54385;53.516;49.456;2023-09-07T08:36:35;2.88;;;1.13;;
67554;SDS011;54385;53.516;49.456;2023-09-07T08:39:05;1.95;;;1.35;;
67554;SDS011;54385;53.516;49.456;2023-09-07T08:41:42;2.05;;;1.10;;
67554;SDS011;54385;53.516;49.456;2023-09-07T08:44:10;2.05;;;1.20;;
67554;SDS011;54385;53.516;49.456;2023-09-07T08:46:37;2.80;;;1.30;;
67554;SDS011;54385;53.516;49.456;2023-09-07T08:49:07;2.10;;;1.13;;
67554;SDS011;54385;53.516;49.456;2023-09-07T08:51:38;1.85;;;1.20;;
67554;SDS011;54385;53.516;49.456;2023-09-07T08:54:05;3.08;;;1.33;;
67554;SDS011;54385;53.516;49.456;2023-09-07T08:56:34;2.40;;;1.20;;
67554;SDS011;54385;53.516;49.456;2023-09-07T08:59:00;2.10;;;1.10;;
67554;SDS011;54385;53.516;49.456;2023-09-07T09:01:29;2.00;;;1.10;;
67554;SDS011;54385;53.516;49.456;2023-09-07T09:03:58;1.85;;;1.10;;
67554;SDS011;54385;53.516;49.456;2023-09-07T09:06:25;2.20;;;1.10;;
67554;SDS011;54385;53.516;49.456;2023-09-07T09:09:01;2.13;;;1.10;;
67554;SDS011;54385;53.516;49.456;2023-09-07T09:11:31;2.40;;;1.20;;
67554;SDS011;54385;53.516;49.456;2023-09-07T09:13:57;1.60;;;1.00;;
67554;SDS011;54385;53.516;49.456;2023-09-07T09:16:27;2.40;;;1.17;;
67554;SDS011;54385;53.516;49.456;2023-09-07T09:18:59;1.90;;;1.00;;
67554;SDS011;54385;53.516;49.456;2023-09-07T09:21:32;1.98;;;1.17;;
67554;SDS011;54385;53.516;49.456;2023-09-07T09:23:59;1.80;;;1.02;;
67554;SDS011;54385;53.516;49.456;2023-09-07T09:26:28;2.72;;;1.70;;
67554;SDS011;54385;53.516;49.456;2023-09-07T09:28:59;2.25;;;1.00;;
67554;SDS011;54385;53.516;49.456;2023-09-07T09:32:06;1.35;;;0.90;;
67554;SDS011;54385;53.516;49.456;2023-09-07T09:34:33;3.78;;;0.93;;
67554;SDS011;54385;53.516;49.456;2023-09-07T09:37:02;1.38;;;1.00;;
67554;SDS011;54385;53.516;49.456;2023-09-07T09:39:33;1.27;;;0.95;;
67554;SDS011;54385;53.516;49.456;2023-09-07T09:42:04;1.13;;;0.82;;
67554;SDS011;54385;53.516;49.456;2023-09-07T09:44:33;1.40;;;1.10;;
67554;SDS011;54385;53.516;49.456;2023-09-07T09:47:03;2.13;;;1.00;;
67554;SDS011;54385;53.516;49.456;2023-09-07T09:49:34;1.55;;;1.10;;
67554;SDS011;54385;53.516;49.456;2023-09-07T09:52:02;2.03;;;1.00;;
67554;SDS011;54385;53.516;49.456;2023-09-07T09:54:32;2.42;;;1.30;;
67554;SDS011;54385;53.516;49.456;2023-09-07T09:57:02;1.52;;;0.90;;
67554;SDS011;54385;53.516;49.456;2023-09-07T09:59:36;2.00;;;1.00;;
67554;SDS011;54385;53.516;49.456;2023-09-07T10:02:04;1.25;;;1.02;;
67554;SDS011;54385;53.516;49.456;2023-09-07T10:04:32;1.25;;;0.88;;
67554;SDS011;54385;53.516;49.456;2023-09-07T10:07:05;1.55;;;0.80;;
67554;SDS011;54385;53.516;49.456;2023-09-07T10:09:33;3.50;;;1.00;;
67554;SDS011;54385;53.516;49.456;2023-09-07T10:12:10;1.80;;;1.15;;
67554;SDS011;54385;53.516;49.456;2023-09-07T10:14:44;1.50;;;0.90;;
67554;SDS011;54385;53.516;49.456;2023-09-07T10:17:22;1.65;;;0.90;;
67554;SDS011;54385;53.516;49.456;2023-09-07T10:20:02;1.20;;;0.80;;
67554;SDS011;54385;53.516;49.456;2023-09-07T10:22:35;1.73;;;1.00;;
67554;SDS011;54385;53.516;49.456;2023-09-07T10:25:06;1.02;;;0.85;;
67554;SDS011;54385;53.516;49.456;2023-09-07T10:28:19;1.10;;;0.80;;
67554;SDS011;54385;53.516;49.456;2023-09-07T10:31:24;1.65;;;0.90;;
67554;SDS011;54385;53.516;49.456;2023-09-07T10:33:51;1.33;;;0.90;;
67554;SDS011;54385;53.516;49.456;2023-09-07T10:36:22;1.70;;;1.10;;
67554;SDS011;54385;53.516;49.456;2023-09-07T10:38:50;2.15;;;1.00;;
67554;SDS011;54385;53.516;49.456;2023-09-07T10:41:19;1.70;;;1.05;;
67554;SDS011;54385;53.516;49.456;2023-09-07T10:43:58;1.65;;;1.00;;
67554;SDS011;54385;53.516;49.456;2023-09-07T10:46:25;2.25;;;1.08;;
67554;SDS011;54385;53.516;49.456;2023-09-07T10:48:58;1.65;;;1.00;;
67554;SDS011;54385;53.516;49.456;2023-09-07T10:51:26;1.58;;;0.80;;
67554;SDS011;54385;53.516;49.456;2023-09-07T10:53:52;2.60;;;1.13;;
67554;SDS011;54385;53.516;49.456;2023-09-07T10:56:23;1.60;;;0.88;;
67554;SDS011;54385;53.516;49.456;2023-09-07T10:58:54;1.42;;;0.90;;
67554;SDS011;54385;53.516;49.456;2023-09-07T11:01:20;1.30;;;0.85;;
67554;SDS011;54385;53.516;49.456;2023-09-07T11:03:47;1.25;;;0.90;;
67554;SDS011;54385;53.516;49.456;2023-09-07T11:06:18;1.50;;;1.10;;
67554;SDS011;54385;53.516;49.456;2023-09-07T11:08:47;2.22;;;1.10;;
67554;SDS011;54385;53.516;49.456;2023-09-07T11:11:16;1.60;;;1.00;;
67554;SDS011;54385;53.516;49.456;2023-09-07T11:13:44;1.60;;;0.90;;
67554;SDS011;54385;53.516;49.456;2023-09-07T11:16:14;1.83;;;1.10;;
67554;SDS011;54385;53.516;49.456;2023-09-07T11:18:44;1.83;;;0.98;;
67554;SDS011;54385;53.516;49.456;2023-09-07T11:21:12;1.83;;;1.20;;
67554;SDS011;54385;53.516;49.456;2023-09-07T11:23:40;2.13;;;1.10;;
67554;SDS011;54385;53.516;49.456;2023-09-07T11:26:09;1.27;;;0.95;;
67554;SDS011;54385;53.516;49.456;2023-09-07T11:28:36;1.52;;;0.90;;
67554;SDS011;54385;53.516;49.456;2023-09-07T11:31:07;1.08;;;0.93;;
67554;SDS011;54385;53.516;49.456;2023-09-07T11:36:30;1.35;;;1.08;;
67554;SDS011;54385;53.516;49.456;2023-09-07T11:38:56;1.45;;;0.90;;
67554;SDS011;54385;53.516;49.456;2023-09-07T11:41:23;2.58;;;1.20;;
67554;SDS011;54385;53.516;49.456;2023-09-07T11:43:53;3.53;;;1.35;;
67554;SDS011;54385;53.516;49.456;2023-09-07T11:46:25;1.70;;;0.93;;
67554;SDS011;54385;53.516;49.456;2023-09-07T11:49:05;2.13;;;1.00;;
67554;SDS011;54385;53.516;49.456;2023-09-07T11:52:03;1.38;;;1.10;;
67554;SDS011;54385;53.516;49.456;2023-09-07T11:54:36;1.83;;;0.90;;
67554;SDS011;54385;53.516;49.456;2023-09-07T11:57:03;2.38;;;1.02;;
67554;SDS011;54385;53.516;49.456;2023-09-07T11:59:32;1.52;;;0.98;;
67554;SDS011;54385;53.516;49.456;2023-09-07T12:02:00;2.42;;;1.05;;
67554;SDS011;54385;53.516;49.456;2023-09-07T12:04:26;2.95;;;1.63;;
67554;SDS011;54385;53.516;49.456;2023-09-07T12:06:53;1.92;;;1.02;;
67554;SDS011;54385;53.516;49.456;2023-09-07T12:09:22;1.50;;;1.10;;
67554;SDS011;54385;53.516;49.456;2023-09-07T12:11:49;1.48;;;1.00;;
67554;SDS011;54385;53.516;49.456;2023-09-07T12:14:15;2.35;;;1.10;;
67554;SDS011;54385;53.516;49.456;2023-09-07T12:16:45;2.00;;;1.05;;
67554;SDS011;54385;53.516;49.456;2023-09-07T12:19:12;1.65;;;1.10;;
67554;SDS011;54385;53.516;49.456;2023-09-07T12:21:46;1.15;;;1.02;;
67554;SDS011;54385;53.516;49.456;2023-09-07T12:24:13;2.50;;;1.20;;
67554;SDS011;54385;53.516;49.456;2023-09-07T12:26:42;2.88;;;1.20;;
67554;SDS011;54385;53.516;49.456;2023-09-07T12:29:22;1.50;;;1.00;;
67554;SDS011;54385;53.516;49.456;2023-09-07T12:31:50;2.20;;;1.00;;
67554;SDS011;54385;53.516;49.456;2023-09-07T12:34:20;2.65;;;1.30;;
67554;SDS011;54385;53.516;49.456;2023-09-07T12:36:47;2.80;;;1.10;;
67554;SDS011;54385;53.516;49.456;2023-09-07T12:39:15;2.17;;;1.10;;
67554;SDS011;54385;53.516;49.456;2023-09-07T12:41:42;1.45;;;1.00;;
67554;SDS011;54385;53.516;49.456;2023-09-07T12:44:09;1.52;;;1.00;;
67554;SDS011;54385;53.516;49.456;2023-09-07T12:46:38;1.23;;;1.00;;
67554;SDS011;54385;53.516;49.456;2023-09-07T12:49:05;3.40;;;1.00;;
67554;SDS011;54385;53.516;49.456;2023-09-07T12:51:32;2.58;;;1.00;;
67554;SDS011;54385;53.516;49.456;2023-09-07T12:53:59;2.00;;;1.20;;
67554;SDS011;54385;53.516;49.456;2023-09-07T12:56:27;2.03;;;1.00;;
67554;SDS011;54385;53.516;49.456;2023-09-07T12:58:56;1.20;;;1.00;;
67554;SDS011;54385;53.516;49.456;2023-09-07T13:01:28;1.50;;;0.90;;
67554;SDS011;54385;53.516;49.456;2023-09-07T13:03:57;2.08;;;1.20;;
67554;SDS011;54385;53.516;49.456;2023-09-07T13:06:23;2.67;;;1.05;;
67554;SDS011;54385;53.516;49.456;2023-09-07T13:08:53;2.28;;;1.10;;
67554;SDS011;54385;53.516;49.456;2023-09-07T13:11:23;1.10;;;0.98;;
67554;SDS011;54385;53.516;49.456;2023-09-07T13:13:50;1.52;;;1.10;;
67554;SDS011;54385;53.516;49.456;2023-09-07T13:16:18;1.10;;;0.73;;
67554;SDS011;54385;53.516;49.456;2023-09-07T13:18:45;1.58;;;1.00;;
67554;SDS011;54385;53.516;49.456;2023-09-07T13:21:12;1.27;;;1.10;;
67554;SDS011;54385;53.516;49.456;2023-09-07T13:23:39;1.23;;;1.00;;
67554;SDS011;54385;53.516;49.456;2023-09-07T13:26:07;1.70;;;1.13;;
67554;SDS011;54385;53.516;49.456;2023-09-07T13:28:37;1.58;;;0.90;;
67554;SDS011;54385;53.516;49.456;2023-09-07T13:31:03;1.52;;;1.00;;
67554;SDS011;54385;53.516;49.456;2023-09-07T13:33:30;2.03;;;1.10;;
67554;SDS011;54385;53.516;49.456;2023-09-07T13:35:57;1.40;;;1.10;;
67554;SDS011;54385;53.516;49.456;2023-09-07T13:38:23;1.85;;;1.20;;
67554;SDS011;54385;53.516;49.456;2023-09-07T13:40:50;1.40;;;0.80;;
67554;SDS011;54385;53.516;49.456;2023-09-07T13:43:16;2.03;;;0.95;;
67554;SDS011;54385;53.516;49.456;2023-09-07T13:45:43;1.25;;;0.93;;
67554;SDS011;54385;53.516;49.456;2023-09-07T13:48:09;2.13;;;1.20;;
67554;SDS011;54385;53.516;49.456;2023-09-07T13:50:39;1.30;;;0.90;;
67554;SDS011;54385;53.516;49.456;2023-09-07T13:53:06;1.75;;;1.30;;
67554;SDS011;54385;53.516;49.456;2023-09-07T13:55:32;1.33;;;0.82;;
67554;SDS011;54385;53.516;49.456;2023-09-07T13:57:59;1.95;;;1.05;;
67554;SDS011;54385;53.516;49.456;2023-09-07T14:00:26;1.42;;;1.00;;
67554;SDS011;54385;53.516;49.456;2023-09-07T14:02:54;1.10;;;0.90;;
67554;SDS011;54385;53.516;49.456;2023-09-07T14:05:20;1.08;;;0.88;;
67554;SDS011;54385;53.516;49.456;2023-09-07T14:07:47;1.42;;;1.00;;
67554;SDS011;54385;53.516;49.456;2023-09-07T14:10:13;2.50;;;0.90;;
67554;SDS011;54385;53.516;49.456;2023-09-07T14:12:40;2.55;;;1.20;;
67554;SDS011;54385;53.516;49.456;2023-09-07T14:15:08;1.50;;;1.10;;
67554;SDS011;54385;53.516;49.456;2023-09-07T14:17:35;1.63;;;1.00;;
67554;SDS011;54385;53.516;49.456;2023-09-07T14:20:01;2.03;;;1.00;;
67554;SDS011;54385;53.516;49.456;2023-09-07T14:22:28;1.13;;;0.85;;
67554;SDS011;54385;53.516;49.456;2023-09-07T14:24:56;1.92;;;0.93;;
67554;SDS011;54385;53.516;49.456;2023-09-07T14:27:23;1.95;;;1.15;;
67554;SDS011;54385;53.516;49.456;2023-09-07T14:29:50;1.40;;;1.10;;
67554;SDS011;54385;53.516;49.456;2023-09-07T14:32:17;1.30;;;0.88;;
67554;SDS011;54385;53.516;49.456;2023-09-07T14:34:44;2.03;;;1.20;;
67554;SDS011;54385;53.516;49.456;2023-09-07T14:37:11;1.40;;;0.80;;
67554;SDS011;54385;53.516;49.456;2023-09-07T14:39:37;1.52;;;1.08;;
67554;SDS011;54385;53.516;49.456;2023-09-07T14:42:04;1.75;;;0.93;;
67554;SDS011;54385;53.516;49.456;2023-09-07T14:44:37;1.70;;;1.10;;
67554;SDS011;54385;53.516;49.456;2023-09-07T14:47:04;1.15;;;0.90;;